Purki — 9HA2386 — position and weather

sailwx.info

Track history (hours):
 
Tides and Currents Weather Stations Pressure Air Temp Water Temp Dewpoint Dewpoint Depression Visibility Wind Speed Wind Dir Waves Ship Positions

Purki

Last reported at 2017-May-17 10:36 UTC. Time now 2017-May-23 06:47 UTC.
Position N 37°55' E 025°29'.

Length 146 m; draft 6.9 m.

Type: Cargo ship. MMSI: 248495000.

Date/timePositionNaut miles runAvg speedWind from/ knotsBaromVisibWave heightAir tempDewpointWater temp
2017-May-17 10:36N 37°55' E 025°29'112.5
2017-May-17 10:31N 37°54' E 025°29'612.6
2017-May-17 10:01N 37°48' E 025°26'612.2
2017-May-17 09:30N 37°42' E 025°24'612.0
2017-May-17 09:01N 37°37' E 025°21'611.6
2017-May-17 08:31N 37°32' E 025°18'611.8
2017-May-17 08:01N 37°28' E 025°12'612.3
2017-May-17 07:31N 37°25' E 025°05'612.8
2017-May-17 07:00N 37°21' E 024°59'613.1
2017-May-17 06:31N 37°17' E 024°52'43112.8
2017-May-15 20:53N 36°33' E 015°56'514.6
2017-May-15 20:30N 36°34' E 015°49'714.4
2017-May-15 20:00N 36°34' E 015°40'714.4
2017-May-15 19:30N 36°34' E 015°31'714.3
2017-May-15 19:00N 36°34' E 015°22'714.2
2017-May-15 18:30N 36°35' E 015°13'713.9
2017-May-15 18:00N 36°36' E 015°05'713.9
2017-May-15 17:30N 36°36' E 014°56'714.1
2017-May-15 17:00N 36°36' E 014°48'713.6
2017-May-15 16:30N 36°38' E 014°39'713.8
2017-May-15 16:00N 36°39' E 014°31'713.9
2017-May-15 15:30N 36°41' E 014°22'714.1
2017-May-15 15:00N 36°42' E 014°14'1414.2
2017-May-15 14:00N 36°46' E 013°57'714.1
2017-May-15 13:30N 36°47' E 013°48'714.1
2017-May-15 13:00N 36°49' E 013°39'714.1
2017-May-15 12:30N 36°51' E 013°31'714.0
2017-May-15 12:00N 36°52' E 013°22'713.6
2017-May-15 11:30N 36°54' E 013°14'713.5
2017-May-15 11:00N 36°55' E 013°06'713.8
2017-May-15 10:31N 36°57' E 012°57'813.7
2017-May-15 09:57N 36°58' E 012°48'6913.3
2017-May-15 04:45N 37°15' E 011°24'313.1
2017-May-15 04:30N 37°17' E 011°20'713.3
2017-May-15 04:00N 37°20' E 011°13'  
2017-May-11 07:18N 37°11' E 007°30'9312.8
2017-May-11 00:02N 37°21' E 009°26'112.4
2017-May-10 23:59N 37°21' E 009°27'  
Track history (hours):
 
Tides and Currents Weather Stations Pressure Air Temp Water Temp Dewpoint Dewpoint Depression Visibility Wind Speed Wind Dir Waves Ship Positions

Purki

Last reported at 2017-May-17 10:36 UTC. Time now 2017-May-23 06:47 UTC.
Position N 37°55' E 025°29'.

Length 146 m; draft 6.9 m.

Type: Cargo ship. MMSI: 248495000.

Date/timePositionNaut miles runAvg speedWind from/ knotsBaromVisibWave heightAir tempDewpointWater temp
2017-May-17 10:36N 37°55' E 025°29'112.5
2017-May-17 10:31N 37°54' E 025°29'612.6
2017-May-17 10:01N 37°48' E 025°26'612.2
2017-May-17 09:30N 37°42' E 025°24'612.0
2017-May-17 09:01N 37°37' E 025°21'611.6
2017-May-17 08:31N 37°32' E 025°18'611.8
2017-May-17 08:01N 37°28' E 025°12'612.3
2017-May-17 07:31N 37°25' E 025°05'612.8
2017-May-17 07:00N 37°21' E 024°59'613.1
2017-May-17 06:31N 37°17' E 024°52'43112.8
2017-May-15 20:53N 36°33' E 015°56'514.6
2017-May-15 20:30N 36°34' E 015°49'714.4
2017-May-15 20:00N 36°34' E 015°40'714.4
2017-May-15 19:30N 36°34' E 015°31'714.3
2017-May-15 19:00N 36°34' E 015°22'714.2
2017-May-15 18:30N 36°35' E 015°13'713.9
2017-May-15 18:00N 36°36' E 015°05'713.9
2017-May-15 17:30N 36°36' E 014°56'714.1
2017-May-15 17:00N 36°36' E 014°48'713.6
2017-May-15 16:30N 36°38' E 014°39'713.8
2017-May-15 16:00N 36°39' E 014°31'713.9
2017-May-15 15:30N 36°41' E 014°22'714.1
2017-May-15 15:00N 36°42' E 014°14'1414.2
2017-May-15 14:00N 36°46' E 013°57'714.1
2017-May-15 13:30N 36°47' E 013°48'714.1
2017-May-15 13:00N 36°49' E 013°39'714.1
2017-May-15 12:30N 36°51' E 013°31'714.0
2017-May-15 12:00N 36°52' E 013°22'713.6
2017-May-15 11:30N 36°54' E 013°14'713.5
2017-May-15 11:00N 36°55' E 013°06'713.8
2017-May-15 10:31N 36°57' E 012°57'813.7
2017-May-15 09:57N 36°58' E 012°48'6913.3
2017-May-15 04:45N 37°15' E 011°24'313.1
2017-May-15 04:30N 37°17' E 011°20'713.3
2017-May-15 04:00N 37°20' E 011°13'  
2017-May-11 07:18N 37°11' E 007°30'9312.8
2017-May-11 00:02N 37°21' E 009°26'112.4
2017-May-10 23:59N 37°21' E 009°27'  

Dump ship's entire track history